Hauptseite
METAR-TAF:

METAR-TAF

Flughäfen :

Militärflugplatz Sarzana-Luni

Sarzana, Italien

Breite: 44-05N, Länge: 009-59E, Höhe: 9 m

Beobachtung

Neuester Wetterbericht von vor 6 Stunden und 56 Minuten, um 20:55 UTC
Wind 4 kt aus Nordwest
Temperatur 23°C
Luftfeuchtigkeit 94%
Luftdruck 1019 hPa
Sichtweite 10 km oder mehr
keine Wolken unter 1500 m und keine Kumulonimbus oder Gewitterwolken

METAR: LIQW 182055Z 32004KT CAVOK 23/22 Q1019 RMK SKC VIS MIN 9999 WIND THR18 32005KT BLU

Zeit: 05:51 (03:51 UTC)


TAF: fehlend

Wetterbeobachtungen und Prognosen von mehr als 4000 Flughäfen (METAR und TAF Bericht).

Die verfügbaren Stationen werden durch gelbe und rote Markierungen auf der Karte dargestellt.

Führen Sie die Maus auf sie, um den Namen der Station zu sehen.

Darauf klicken, um die Beobachtung von Wetterbeobachtungen und Prognosen zu sehen.

Um die Karte zu ändern : klicken Sie auf den grünen Tasten mit einem schwarzen Kreuz Zum Vergrößern, auf den grünen Button mit einem Gedankenstrich zu verkleinern, oder auf die grünen Pfeile für benachbarte Karten.


METAR-TAF: